Time;durP1;ratioP1;P1;durP2;ratioP2;P2;SDS_P1;SDS_P2;PMS_P1;PMS_P2;Temp;Humidity;BMP_temperature;BMP_pressure;BME280_temperature;BME280_humidity;BME280_pressure;Samples;Min_cycle;Max_cycle;Signal;HPM_P1;HPM_P2
2023/05/23 00:01:44;;;;;;;;;;;21.00;61.80;;;;;;5070628;28;20401;-70
2023/05/23 00:04:15;;;;;;;;;;;21.00;61.80;;;;;;5070793;28;19930;-67
2023/05/23 00:06:45;;;;;;;;;;;21.00;61.90;;;;;;5072028;28;19921;-70
2023/05/23 00:09:12;;;;;;;;;;;21.10;61.90;;;;;;5071832;28;19924;-69
2023/05/23 00:11:37;;;;;;;;;;;21.00;61.90;;;;;;5070439;28;20342;-70
2023/05/23 00:14:03;;;;;;;;;;;21.00;61.90;;;;;;5104687;28;19924;-70
2023/05/23 00:16:29;;;;;;;;;;;20.90;61.80;;;;;;5104554;28;20418;-70
2023/05/23 00:18:56;;;;;;;;;;;21.00;61.80;;;;;;5104276;28;19924;-66
2023/05/23 00:21:21;;;;;;;;;;;21.00;61.90;;;;;;5071770;28;19920;-70
2023/05/23 00:23:47;;;;;;;;;;;20.90;61.80;;;;;;5071675;28;20397;-70
2023/05/23 00:26:12;;;;;;;;;;;20.90;61.80;;;;;;5105205;28;19974;-70
2023/05/23 00:28:38;;;;;;;;;;;20.90;61.80;;;;;;5107933;28;20509;-70
2023/05/23 00:31:03;;;;;;;;;;;20.90;61.90;;;;;;5075651;28;20279;-70
2023/05/23 00:33:31;;;;;;;;;;;20.90;61.90;;;;;;5108032;28;20364;-71
2023/05/23 00:35:58;;;;;;;;;;;20.90;61.90;;;;;;5107990;28;20023;-71
2023/05/23 00:38:23;;;;;;;;;;;20.90;61.90;;;;;;5107659;28;19926;-71
2023/05/23 00:40:49;;;;;;;;;;;20.90;61.90;;;;;;5107953;28;19920;-71
2023/05/23 00:43:15;;;;;;;;;;;20.90;61.90;;;;;;5107790;28;19946;-71
2023/05/23 00:45:40;;;;;;;;;;;20.90;61.90;;;;;;5107754;28;19920;-71
2023/05/23 00:48:06;;;;;;;;;;;20.90;61.90;;;;;;5107536;28;19928;-71
2023/05/23 00:50:32;;;;;;;;;;;20.80;61.90;;;;;;5107804;28;19927;-71
2023/05/23 00:52:59;;;;;;;;;;;20.80;61.90;;;;;;5107393;28;19920;-71
2023/05/23 00:55:24;;;;;;;;;;;20.90;62.00;;;;;;5107693;28;19928;-71
2023/05/23 00:57:51;;;;;;;;;;;20.80;61.90;;;;;;5107245;28;20296;-71
2023/05/23 01:00:18;;;;;;;;;;;20.80;61.90;;;;;;5107198;28;19930;-72
2023/05/23 01:02:50;;;;;;;;;;;20.80;62.70;;;;;;5074575;28;20334;-71
2023/05/23 01:05:17;;;;;;;;;;;20.80;61.90;;;;;;5107516;28;19924;-72
2023/05/23 01:07:44;;;;;;;;;;;20.80;61.90;;;;;;5107051;28;19964;-71
2023/05/23 01:10:10;;;;;;;;;;;20.80;62.00;;;;;;5107344;28;19927;-72
2023/05/23 01:15:27;;;;;;;;;;;20.80;62.00;;;;;;5109196;27;19912;-71
2023/05/23 01:20:36;;;;;;;;;;;20.80;62.00;;;;;;5110290;27;19911;-72
2023/05/23 01:23:21;;;;;;;;;;;20.80;62.00;;;;;;5108192;28;19963;-72
2023/05/23 01:25:58;;;;;;;;;;;20.80;62.00;;;;;;5108603;28;20003;-71
2023/05/23 01:28:28;;;;;;;;;;;20.80;62.00;;;;;;5109065;28;19970;-72
2023/05/23 01:30:56;;;;;;;;;;;20.80;62.00;;;;;;5110070;28;19920;-72
2023/05/23 01:33:23;;;;;;;;;;;20.70;62.00;;;;;;5108668;28;19987;-72
2023/05/23 01:35:48;;;;;;;;;;;20.70;62.00;;;;;;5109918;28;19985;-72
2023/05/23 01:38:13;;;;;;;;;;;20.80;62.00;;;;;;5108578;28;20386;-72
2023/05/23 01:40:39;;;;;;;;;;;20.70;62.00;;;;;;5108808;28;19970;-72
2023/05/23 01:43:05;;;;;;;;;;;20.70;62.00;;;;;;5109964;28;19923;-71
2023/05/23 01:45:31;;;;;;;;;;;20.70;62.00;;;;;;5110003;28;20363;-71
2023/05/23 01:47:57;;;;;;;;;;;20.70;62.00;;;;;;5109697;28;19920;-71
2023/05/23 01:50:23;;;;;;;;;;;20.70;62.00;;;;;;5108398;28;19920;-71
2023/05/23 01:52:49;;;;;;;;;;;20.70;62.00;;;;;;5108635;28;19920;-71
2023/05/23 01:55:17;;;;;;;;;;;20.70;62.00;;;;;;5109797;28;19932;-71
2023/05/23 01:57:47;;;;;;;;;;;20.70;62.00;;;;;;5108433;28;19923;-71
2023/05/23 02:00:14;;;;;;;;;;;20.70;62.00;;;;;;5109597;28;20054;-71
2023/05/23 02:02:39;;;;;;;;;;;20.70;62.00;;;;;;5108515;28;20391;-71
2023/05/23 02:05:05;;;;;;;;;;;20.70;62.00;;;;;;5108063;28;19959;-71
2023/05/23 02:07:30;;;;;;;;;;;20.60;62.00;;;;;;5109382;28;20012;-71
2023/05/23 02:09:56;;;;;;;;;;;20.60;62.10;;;;;;5107909;28;20479;-71
2023/05/23 02:12:22;;;;;;;;;;;20.60;62.00;;;;;;5108254;28;19927;-71
2023/05/23 02:14:48;;;;;;;;;;;20.60;62.00;;;;;;5107922;28;19927;-71
2023/05/23 02:17:15;;;;;;;;;;;20.70;62.00;;;;;;5109509;28;20322;-71
2023/05/23 02:19:41;;;;;;;;;;;20.60;62.00;;;;;;5122260;28;20022;-71
2023/05/23 02:22:06;;;;;;;;;;;20.60;62.00;;;;;;5111156;28;19958;-67
2023/05/23 02:24:31;;;;;;;;;;;20.60;62.00;;;;;;5129507;28;20018;-71
2023/05/23 02:26:57;;;;;;;;;;;20.50;62.00;;;;;;5129568;28;19945;-66
2023/05/23 02:29:22;;;;;;;;;;;20.60;62.00;;;;;;5145393;27;19947;-71
2023/05/23 02:31:48;;;;;;;;;;;20.50;61.90;;;;;;5098046;28;19920;-71
2023/05/23 02:34:13;;;;;;;;;;;20.60;62.00;;;;;;5097319;28;20007;-71
2023/05/23 02:36:39;;;;;;;;;;;20.50;61.90;;;;;;5115840;28;19942;-71
2023/05/23 02:39:05;;;;;;;;;;;20.50;61.90;;;;;;5097276;28;19928;-71
2023/05/23 02:41:31;;;;;;;;;;;20.50;61.90;;;;;;5097453;28;19920;-71
2023/05/23 02:43:57;;;;;;;;;;;20.50;61.90;;;;;;5115241;28;19920;-71
2023/05/23 02:46:22;;;;;;;;;;;20.50;61.90;;;;;;5115279;28;20299;-71
2023/05/23 02:48:48;;;;;;;;;;;20.50;62.00;;;;;;5131278;27;20318;-71
2023/05/23 02:51:13;;;;;;;;;;;20.50;61.90;;;;;;5131581;27;19920;-71
2023/05/23 02:53:39;;;;;;;;;;;20.50;61.90;;;;;;5115458;28;20010;-71
2023/05/23 02:56:04;;;;;;;;;;;20.50;61.90;;;;;;5096805;28;19920;-71
2023/05/23 02:58:30;;;;;;;;;;;20.50;61.90;;;;;;5131353;27;20018;-71
2023/05/23 03:00:56;;;;;;;;;;;20.50;61.90;;;;;;5115219;28;19920;-71
2023/05/23 03:03:21;;;;;;;;;;;20.50;61.90;;;;;;5115122;28;19920;-71
2023/05/23 03:05:47;;;;;;;;;;;20.50;61.90;;;;;;5097028;28;19919;-71
2023/05/23 03:08:13;;;;;;;;;;;20.50;61.90;;;;;;5096609;28;19968;-71
2023/05/23 03:10:38;;;;;;;;;;;20.50;61.90;;;;;;5130709;27;20026;-71
2023/05/23 03:13:04;;;;;;;;;;;20.60;61.70;;;;;;5096555;28;19920;-71
2023/05/23 03:15:29;;;;;;;;;;;20.80;61.30;;;;;;5114987;28;19927;-71
2023/05/23 03:17:55;;;;;;;;;;;21.00;60.70;;;;;;5096854;28;19923;-71
2023/05/23 03:20:20;;;;;;;;;;;21.20;60.30;;;;;;5096002;28;20002;-72
2023/05/23 03:22:46;;;;;;;;;;;21.30;59.90;;;;;;5114615;28;19924;-66
2023/05/23 03:25:13;;;;;;;;;;;21.50;59.60;;;;;;5096631;28;19924;-71
2023/05/23 03:27:39;;;;;;;;;;;21.60;59.20;;;;;;5096560;28;19919;-72
2023/05/23 03:30:05;;;;;;;;;;;21.70;58.90;;;;;;5096275;28;19968;-71
2023/05/23 03:32:30;;;;;;;;;;;21.80;58.70;;;;;;5096460;28;20016;-71
2023/05/23 03:34:56;;;;;;;;;;;21.90;58.50;;;;;;5114481;28;20450;-71
2023/05/23 03:37:21;;;;;;;;;;;21.90;58.30;;;;;;5114556;28;19926;-71
2023/05/23 03:39:47;;;;;;;;;;;21.90;58.20;;;;;;5096115;28;19924;-71
2023/05/23 03:42:12;;;;;;;;;;;21.90;58.10;;;;;;5095295;28;19978;-71
2023/05/23 03:44:38;;;;;;;;;;;21.90;58.00;;;;;;5114172;28;19993;-71
2023/05/23 03:47:04;;;;;;;;;;;21.90;58.00;;;;;;5114206;28;20379;-71
2023/05/23 03:49:29;;;;;;;;;;;21.90;58.00;;;;;;5096187;28;20331;-71
2023/05/23 03:51:55;;;;;;;;;;;21.90;58.00;;;;;;5096151;28;19923;-71
2023/05/23 03:54:20;;;;;;;;;;;21.80;57.90;;;;;;5096203;28;20374;-71
2023/05/23 03:56:46;;;;;;;;;;;21.80;58.00;;;;;;5095786;28;19932;-71
2023/05/23 03:59:11;;;;;;;;;;;21.70;58.00;;;;;;5113911;28;19986;-71
2023/05/23 04:01:38;;;;;;;;;;;21.70;58.10;;;;;;5095972;28;19924;-71
2023/05/23 04:04:04;;;;;;;;;;;21.60;58.10;;;;;;5113851;28;19924;-71
2023/05/23 04:06:30;;;;;;;;;;;21.50;58.10;;;;;;5095683;28;19920;-71
2023/05/23 04:08:55;;;;;;;;;;;21.50;58.20;;;;;;5095519;28;19923;-71
2023/05/23 04:11:21;;;;;;;;;;;21.50;58.30;;;;;;5095739;28;19968;-71
2023/05/23 04:13:47;;;;;;;;;;;21.40;58.30;;;;;;5095390;28;19964;-71
2023/05/23 04:16:12;;;;;;;;;;;21.30;58.40;;;;;;5095390;28;19919;-71
2023/05/23 04:18:38;;;;;;;;;;;21.30;58.50;;;;;;5095056;28;19924;-71
2023/05/23 04:21:04;;;;;;;;;;;21.30;58.60;;;;;;5095428;28;19935;-71
2023/05/23 04:23:29;;;;;;;;;;;21.20;58.60;;;;;;5113527;28;19927;-71
2023/05/23 04:25:56;;;;;;;;;;;21.10;58.70;;;;;;5129695;27;19975;-71
2023/05/23 04:28:22;;;;;;;;;;;21.10;58.90;;;;;;5095761;28;19919;-71
2023/05/23 04:30:48;;;;;;;;;;;21.10;58.90;;;;;;5113377;28;19920;-71
2023/05/23 04:33:14;;;;;;;;;;;21.00;59.00;;;;;;5095270;28;19965;-71
2023/05/23 04:35:39;;;;;;;;;;;21.00;59.10;;;;;;5113393;28;19920;-71
2023/05/23 04:38:05;;;;;;;;;;;21.00;59.20;;;;;;5113400;28;20448;-71
2023/05/23 04:40:31;;;;;;;;;;;20.90;59.10;;;;;;5094981;28;19931;-71
2023/05/23 04:42:57;;;;;;;;;;;21.00;59.20;;;;;;5094979;28;20317;-71
2023/05/23 04:45:22;;;;;;;;;;;21.00;59.10;;;;;;5095112;28;19945;-71
2023/05/23 04:47:47;;;;;;;;;;;21.10;59.00;;;;;;5094859;28;19926;-71
2023/05/23 04:50:15;;;;;;;;;;;21.10;58.70;;;;;;5128959;27;19988;-71
2023/05/23 04:52:41;;;;;;;;;;;21.20;58.40;;;;;;5095237;28;19924;-71
2023/05/23 04:55:07;;;;;;;;;;;21.30;58.10;;;;;;5094472;28;19919;-71
2023/05/23 04:57:33;;;;;;;;;;;21.40;58.50;;;;;;5113070;28;19920;-71
2023/05/23 04:59:59;;;;;;;;;;;21.50;57.50;;;;;;5112797;28;19938;-71
2023/05/23 05:02:25;;;;;;;;;;;21.50;57.40;;;;;;5112904;28;19924;-71
2023/05/23 05:04:51;;;;;;;;;;;21.60;57.20;;;;;;5112906;28;19959;-71
2023/05/23 05:07:16;;;;;;;;;;;21.60;57.10;;;;;;5129035;27;19927;-71
2023/05/23 05:09:42;;;;;;;;;;;21.60;57.00;;;;;;5128930;27;19927;-71
2023/05/23 05:12:07;;;;;;;;;;;21.70;56.90;;;;;;5112860;28;19934;-71
2023/05/23 05:14:33;;;;;;;;;;;21.80;56.70;;;;;;5094553;28;20010;-71
2023/05/23 05:17:01;;;;;;;;;;;21.70;56.60;;;;;;5094501;28;19950;-71
2023/05/23 05:19:27;;;;;;;;;;;21.70;56.50;;;;;;5094098;28;20403;-71
2023/05/23 05:21:52;;;;;;;;;;;21.70;56.50;;;;;;5094378;28;20037;-71
2023/05/23 05:24:19;;;;;;;;;;;21.70;56.50;;;;;;5094787;28;19945;-71
2023/05/23 05:26:45;;;;;;;;;;;21.60;56.50;;;;;;5094365;28;19923;-71
2023/05/23 05:29:12;;;;;;;;;;;21.60;56.50;;;;;;5111744;28;19927;-70
2023/05/23 05:31:37;;;;;;;;;;;21.60;56.60;;;;;;5094520;28;19970;-62
2023/05/23 05:34:03;;;;;;;;;;;21.60;56.60;;;;;;5093085;28;19967;-67
2023/05/23 05:36:28;;;;;;;;;;;21.60;56.60;;;;;;5092286;28;19950;-67
2023/05/23 05:38:57;;;;;;;;;;;21.60;56.60;;;;;;5088584;28;20379;-67
2023/05/23 05:41:22;;;;;;;;;;;21.50;56.40;;;;;;5107923;28;19926;-68
2023/05/23 05:43:48;;;;;;;;;;;21.60;56.40;;;;;;5089888;28;19920;-68
2023/05/23 05:46:13;;;;;;;;;;;21.60;56.40;;;;;;5107862;28;20322;-68
2023/05/23 05:48:39;;;;;;;;;;;21.50;56.30;;;;;;5090171;28;19920;-67
2023/05/23 05:51:05;;;;;;;;;;;21.50;56.20;;;;;;5108117;28;19923;-67
2023/05/23 05:53:30;;;;;;;;;;;21.50;56.20;;;;;;5090376;28;19927;-67
2023/05/23 05:55:56;;;;;;;;;;;21.40;56.20;;;;;;5089046;28;19973;-67
2023/05/23 05:58:21;;;;;;;;;;;21.30;56.10;;;;;;5088476;28;20022;-67
2023/05/23 06:00:47;;;;;;;;;;;21.40;56.10;;;;;;5089879;28;19928;-68
2023/05/23 06:03:14;;;;;;;;;;;21.30;56.10;;;;;;5107295;28;19920;-68
2023/05/23 06:05:40;;;;;;;;;;;21.30;56.10;;;;;;5091861;28;19949;-68
2023/05/23 06:08:06;;;;;;;;;;;21.40;56.10;;;;;;5085234;28;19972;-68
2023/05/23 06:10:31;;;;;;;;;;;21.40;56.00;;;;;;5112152;27;19942;-68
2023/05/23 06:12:57;;;;;;;;;;;21.40;55.90;;;;;;5084623;28;20355;-66
2023/05/23 06:15:22;;;;;;;;;;;21.40;55.80;;;;;;5104899;27;19919;-69
2023/05/23 06:17:48;;;;;;;;;;;21.40;55.70;;;;;;5086157;28;19927;-66
2023/05/23 06:20:13;;;;;;;;;;;21.50;55.70;;;;;;5087111;28;19923;-72
2023/05/23 06:22:39;;;;;;;;;;;21.50;55.60;;;;;;5119781;27;19927;-69
2023/05/23 06:25:05;;;;;;;;;;;21.50;55.70;;;;;;5104556;28;20773;-70
2023/05/23 06:27:31;;;;;;;;;;;21.50;55.60;;;;;;5093692;27;19931;-69
2023/05/23 06:29:56;;;;;;;;;;;21.60;55.60;;;;;;5080785;28;19950;-69
2023/05/23 06:32:22;;;;;;;;;;;21.70;55.60;;;;;;5112105;27;19927;-69
2023/05/23 06:34:47;;;;;;;;;;;21.60;55.60;;;;;;5099302;28;20337;-69
2023/05/23 06:37:12;;;;;;;;;;;21.60;55.50;;;;;;5113608;27;19923;-69
2023/05/23 06:39:38;;;;;;;;;;;21.60;55.30;;;;;;5087451;28;19942;-69
2023/05/23 06:42:04;;;;;;;;;;;21.60;55.30;;;;;;5075140;28;19924;-68
2023/05/23 06:44:29;;;;;;;;;;;21.60;55.20;;;;;;5083038;28;20553;-69
2023/05/23 06:46:56;;;;;;;;;;;21.50;55.20;;;;;;5077761;28;20307;-68
2023/05/23 06:49:22;;;;;;;;;;;21.50;55.20;;;;;;5077839;28;19969;-67
2023/05/23 06:51:48;;;;;;;;;;;21.40;55.30;;;;;;5096181;28;20562;-70
2023/05/23 06:54:13;;;;;;;;;;;21.40;55.50;;;;;;5099096;28;19923;-69
2023/05/23 06:56:39;;;;;;;;;;;21.40;55.70;;;;;;5078894;28;20001;-70
2023/05/23 06:59:04;;;;;;;;;;;21.40;55.70;;;;;;5078231;28;19932;-73
2023/05/23 07:01:30;;;;;;;;;;;21.40;55.80;;;;;;5095535;28;19920;-71
2023/05/23 07:03:55;;;;;;;;;;;21.30;55.80;;;;;;5075218;28;19935;-70
2023/05/23 07:06:21;;;;;;;;;;;21.40;56.00;;;;;;5076321;28;19924;-72
2023/05/23 07:08:46;;;;;;;;;;;21.30;56.00;;;;;;5077920;28;19985;-72
2023/05/23 07:11:12;;;;;;;;;;;21.30;56.10;;;;;;5094325;28;20424;-70
2023/05/23 07:13:37;;;;;;;;;;;21.30;56.20;;;;;;5110590;27;19924;-70
2023/05/23 07:16:03;;;;;;;;;;;21.30;56.20;;;;;;5094272;28;19959;-71
2023/05/23 07:18:28;;;;;;;;;;;21.30;56.30;;;;;;5078087;28;20026;-72
2023/05/23 07:20:54;;;;;;;;;;;21.30;56.30;;;;;;5097724;28;19993;-71
2023/05/23 07:23:21;;;;;;;;;;;21.30;56.40;;;;;;5107484;27;20387;-71
2023/05/23 07:25:47;;;;;;;;;;;21.30;56.40;;;;;;5093329;28;19967;-70
2023/05/23 07:28:12;;;;;;;;;;;21.30;56.40;;;;;;5097140;28;19974;-69
2023/05/23 07:30:38;;;;;;;;;;;21.30;56.40;;;;;;5074142;28;20428;-71
2023/05/23 07:33:03;;;;;;;;;;;21.30;56.40;;;;;;5071750;28;19927;-71
2023/05/23 07:35:29;;;;;;;;;;;21.30;56.40;;;;;;5096816;27;19985;-70
2023/05/23 07:37:54;;;;;;;;;;;21.30;56.40;;;;;;5080885;28;20088;-70
2023/05/23 07:40:20;;;;;;;;;;;21.40;56.40;;;;;;5095152;28;19998;-70
2023/05/23 07:42:46;;;;;;;;;;;21.40;56.40;;;;;;5094269;28;19967;-71
2023/05/23 07:45:11;;;;;;;;;;;21.40;56.40;;;;;;5076050;28;20386;-72
2023/05/23 07:47:37;;;;;;;;;;;21.50;56.40;;;;;;5081843;28;19920;-74
2023/05/23 07:50:03;;;;;;;;;;;21.50;56.20;;;;;;5079053;28;20025;-71
2023/05/23 07:52:30;;;;;;;;;;;21.50;55.90;;;;;;5094669;28;19999;-70
2023/05/23 07:54:55;;;;;;;;;;;21.50;55.70;;;;;;5076437;28;20437;-74
2023/05/23 07:57:21;;;;;;;;;;;21.50;55.60;;;;;;5073181;28;19919;-74
2023/05/23 07:59:46;;;;;;;;;;;21.50;55.50;;;;;;5077909;28;20019;-68
2023/05/23 08:02:12;;;;;;;;;;;21.50;55.40;;;;;;5075218;28;20017;-70
2023/05/23 08:04:39;;;;;;;;;;;21.50;55.50;;;;;;5075664;28;20018;-69
2023/05/23 08:07:04;;;;;;;;;;;21.50;55.60;;;;;;5076069;28;19924;-68
2023/05/23 08:09:30;;;;;;;;;;;21.40;55.90;;;;;;5079446;28;19942;-68
2023/05/23 08:11:55;;;;;;;;;;;21.40;56.00;;;;;;5090952;28;19943;-70
2023/05/23 08:14:21;;;;;;;;;;;21.40;56.20;;;;;;5077768;28;20345;-71
2023/05/23 08:16:46;;;;;;;;;;;21.40;56.20;;;;;;5092990;28;19935;-68
2023/05/23 08:19:12;;;;;;;;;;;21.40;56.50;;;;;;5078209;28;19931;-66
2023/05/23 08:21:37;;;;;;;;;;;21.30;56.60;;;;;;5075564;28;20415;-69
2023/05/23 08:24:03;;;;;;;;;;;21.30;56.60;;;;;;5075291;28;19920;-70
2023/05/23 08:26:33;;;;;;;;;;;21.30;56.70;;;;;;5092387;28;19920;-70
2023/05/23 08:29:01;;;;;;;;;;;21.30;56.70;;;;;;5081655;28;20307;-70
2023/05/23 08:31:27;;;;;;;;;;;21.30;57.00;;;;;;5106811;27;19923;-69
2023/05/23 08:33:52;;;;;;;;;;;21.20;57.10;;;;;;5066003;28;20100;-71
2023/05/23 08:36:18;;;;;;;;;;;21.20;57.30;;;;;;5086853;28;19928;-67
2023/05/23 08:38:43;;;;;;;;;;;21.10;57.40;;;;;;5071819;28;19927;-70
2023/05/23 08:41:15;;;;;;;;;;;21.10;57.40;;;;;;5073209;28;19924;-68
2023/05/23 08:43:40;;;;;;;;;;;21.10;57.60;;;;;;5073174;27;19924;-70
2023/05/23 08:46:06;;;;;;;;;;;21.10;57.60;;;;;;5071253;28;19961;-68
2023/05/23 08:48:33;;;;;;;;;;;21.10;57.70;;;;;;5069422;28;19959;-67
2023/05/23 08:50:59;;;;;;;;;;;21.10;57.80;;;;;;5088724;28;19927;-68
2023/05/23 08:53:26;;;;;;;;;;;21.10;57.80;;;;;;5073532;28;20403;-68
2023/05/23 08:55:53;;;;;;;;;;;21.10;57.70;;;;;;5073900;28;19935;-67
2023/05/23 08:58:19;;;;;;;;;;;21.10;57.40;;;;;;5075401;28;19935;-68
2023/05/23 09:00:46;;;;;;;;;;;21.20;57.20;;;;;;5071546;28;19928;-66
2023/05/23 09:03:11;;;;;;;;;;;21.10;57.10;;;;;;5090810;28;19958;-65
2023/05/23 09:05:37;;;;;;;;;;;21.20;57.10;;;;;;5074503;27;19963;-70
2023/05/23 09:08:02;;;;;;;;;;;21.20;57.00;;;;;;5072507;28;19923;-75
2023/05/23 09:10:28;;;;;;;;;;;21.30;56.90;;;;;;5072806;28;19920;-71
2023/05/23 09:12:54;;;;;;;;;;;21.30;56.50;;;;;;5061215;28;19935;-68
2023/05/23 09:15:21;;;;;;;;;;;21.30;56.40;;;;;;5086358;28;19924;-70
2023/05/23 09:17:46;;;;;;;;;;;21.30;56.30;;;;;;5066283;28;20817;-72
2023/05/23 09:20:13;;;;;;;;;;;21.30;56.20;;;;;;5065878;28;19928;-71
2023/05/23 09:22:38;;;;;;;;;;;21.30;56.20;;;;;;5092922;28;20528;-71
2023/05/23 09:25:05;;;;;;;;;;;21.30;56.00;;;;;;5104964;28;19923;-69
2023/05/23 09:27:30;;;;;;;;;;;21.30;55.80;;;;;;5092958;28;19927;-71
2023/05/23 09:29:56;;;;;;;;;;;21.30;55.60;;;;;;5091415;28;19924;-69
2023/05/23 09:32:21;;;;;;;;;;;21.30;55.50;;;;;;5076585;28;19928;-69
2023/05/23 09:35:03;;;;;;;;;;;21.40;55.40;;;;;;5073502;28;20057;-70
2023/05/23 09:37:34;;;;;;;;;;;21.40;55.30;;;;;;5078089;28;19919;-70
2023/05/23 09:40:00;;;;;;;;;;;21.40;55.40;;;;;;5072773;28;19961;-70
2023/05/23 09:42:30;;;;;;;;;;;21.40;55.40;;;;;;5076407;27;19932;-69
2023/05/23 09:44:55;;;;;;;;;;;21.40;55.20;;;;;;5112246;27;20438;-68
2023/05/23 09:47:21;;;;;;;;;;;21.40;55.30;;;;;;5081895;28;19924;-69
2023/05/23 09:49:47;;;;;;;;;;;21.40;55.50;;;;;;5079744;28;19930;-69
2023/05/23 09:52:12;;;;;;;;;;;21.40;55.60;;;;;;5096075;28;20003;-69
2023/05/23 09:54:38;;;;;;;;;;;21.40;55.60;;;;;;5078526;28;20010;-67
2023/05/23 09:57:08;;;;;;;;;;;21.40;55.50;;;;;;5079917;28;19989;-69
2023/05/23 09:59:35;;;;;;;;;;;21.40;55.40;;;;;;5081181;28;19927;-68
2023/05/23 10:02:02;;;;;;;;;;;21.40;55.20;;;;;;5094723;28;19924;-70
2023/05/23 10:04:30;;;;;;;;;;;21.40;55.20;;;;;;5110917;27;20003;-68
2023/05/23 10:06:58;;;;;;;;;;;21.50;55.30;;;;;;5079487;28;19928;-68
2023/05/23 10:09:25;;;;;;;;;;;21.50;55.40;;;;;;5094044;27;19985;-69
2023/05/23 10:14:38;;;;;;;;;;;21.40;55.40;;;;;;5087752;27;19916;-69
2023/05/23 10:17:07;;;;;;;;;;;21.50;55.20;;;;;;5080810;28;20380;-69
2023/05/23 10:19:53;;;;;;;;;;;21.40;55.00;;;;;;5076392;28;19928;-68
2023/05/23 10:22:19;;;;;;;;;;;21.50;54.90;;;;;;5081282;28;20048;-66
2023/05/23 10:24:45;;;;;;;;;;;21.40;54.70;;;;;;5086340;28;20011;-69
2023/05/23 10:27:10;;;;;;;;;;;21.50;55.10;;;;;;5086978;28;19935;-69
2023/05/23 10:29:36;;;;;;;;;;;21.50;55.20;;;;;;5078449;28;19921;-70
2023/05/23 10:32:03;;;;;;;;;;;21.50;55.30;;;;;;5079054;28;20871;-68
2023/05/23 10:37:17;;;;;;;;;;;21.50;54.90;;;;;;5087449;27;19925;-69
2023/05/23 10:40:00;;;;;;;;;;;21.50;54.00;;;;;;5068600;28;20347;-68
2023/05/23 10:45:15;;;;;;;;;;;21.50;54.60;;;;;;5071662;27;19916;-69
2023/05/23 10:47:40;;;;;;;;;;;21.50;53.90;;;;;;5089514;28;19931;-68
2023/05/23 10:50:06;;;;;;;;;;;21.50;53.90;;;;;;5073363;28;20292;-68
2023/05/23 10:52:38;;;;;;;;;;;21.50;54.60;;;;;;5100280;28;19921;-68
2023/05/23 10:55:11;;;;;;;;;;;21.50;54.10;;;;;;5076655;28;20332;-68
2023/05/23 10:57:36;;;;;;;;;;;21.50;53.70;;;;;;5072413;28;20125;-66
2023/05/23 11:00:03;;;;;;;;;;;21.40;53.50;;;;;;5074240;28;20051;-66
2023/05/23 11:02:28;;;;;;;;;;;21.40;53.50;;;;;;5074100;28;19924;-65
2023/05/23 11:05:14;;;;;;;;;;;21.40;53.40;;;;;;5069022;28;19977;-67
2023/05/23 11:07:39;;;;;;;;;;;21.40;53.60;;;;;;5068866;28;20303;-67
2023/05/23 11:12:49;;;;;;;;;;;21.40;53.70;;;;;;5077910;27;19920;-65
2023/05/23 11:17:56;;;;;;;;;;;21.40;53.50;;;;;;5079996;27;20697;-66
2023/05/23 11:20:26;;;;;;;;;;;21.40;53.70;;;;;;5070573;28;19924;-67
2023/05/23 11:22:54;;;;;;;;;;;21.40;53.90;;;;;;5074185;28;20458;-68
2023/05/23 11:25:20;;;;;;;;;;;21.40;53.90;;;;;;5075774;28;19925;-66
2023/05/23 11:27:45;;;;;;;;;;;21.40;53.80;;;;;;5076053;28;19932;-67
2023/05/23 11:30:12;;;;;;;;;;;21.30;53.80;;;;;;5073204;28;19959;-67
2023/05/23 11:32:38;;;;;;;;;;;21.30;53.70;;;;;;5108843;28;19956;-72
2023/05/23 11:35:05;;;;;;;;;;;21.30;53.70;;;;;;5068754;28;19974;-72
2023/05/23 11:37:30;;;;;;;;;;;21.30;53.60;;;;;;5071491;28;20138;-68
2023/05/23 11:39:56;;;;;;;;;;;21.40;53.60;;;;;;5072868;28;19981;-71
2023/05/23 11:42:23;;;;;;;;;;;21.40;53.50;;;;;;5069810;28;20265;-70
2023/05/23 11:44:49;;;;;;;;;;;21.40;53.50;;;;;;5068163;28;19955;-72
2023/05/23 11:47:15;;;;;;;;;;;21.50;54.00;;;;;;5070437;28;19962;-69
2023/05/23 11:49:42;;;;;;;;;;;21.50;53.50;;;;;;5072963;28;19948;-68
2023/05/23 11:52:09;;;;;;;;;;;21.50;53.50;;;;;;5102149;28;19939;-65
2023/05/23 11:54:34;;;;;;;;;;;21.50;53.50;;;;;;5068395;28;19920;-68
2023/05/23 11:57:00;;;;;;;;;;;21.50;53.20;;;;;;5073608;28;19935;-67
2023/05/23 11:59:27;;;;;;;;;;;21.50;53.00;;;;;;5102305;28;19925;-66
2023/05/23 12:01:53;;;;;;;;;;;21.50;53.00;;;;;;5072493;28;19928;-65
2023/05/23 12:04:18;;;;;;;;;;;21.50;53.00;;;;;;5071187;28;19935;-68
2023/05/23 12:06:45;;;;;;;;;;;21.50;53.00;;;;;;5086169;28;20392;-68
2023/05/23 12:09:11;;;;;;;;;;;21.50;53.10;;;;;;5067731;28;20054;-67
2023/05/23 12:11:38;;;;;;;;;;;21.50;53.10;;;;;;5071944;28;20366;-67
2023/05/23 12:14:05;;;;;;;;;;;21.50;53.20;;;;;;5071695;28;19925;-69
2023/05/23 12:16:31;;;;;;;;;;;21.50;53.20;;;;;;5101595;28;19929;-69
2023/05/23 12:18:57;;;;;;;;;;;21.50;53.10;;;;;;5070509;28;19924;-69
2023/05/23 12:21:24;;;;;;;;;;;21.50;53.10;;;;;;5071227;28;19982;-69
2023/05/23 12:23:49;;;;;;;;;;;21.50;53.10;;;;;;5068501;28;19925;-67
2023/05/23 12:26:15;;;;;;;;;;;21.50;53.20;;;;;;5100462;28;19921;-68
2023/05/23 12:28:43;;;;;;;;;;;21.60;53.20;;;;;;5089848;28;19925;-68
2023/05/23 12:33:56;;;;;;;;;;;21.60;53.20;;;;;;5078731;27;19927;-67
2023/05/23 12:36:24;;;;;;;;;;;21.60;53.30;;;;;;5045684;28;19975;-68
2023/05/23 12:38:50;;;;;;;;;;;21.60;53.30;;;;;;5047108;28;20050;-67
2023/05/23 12:41:18;;;;;;;;;;;21.50;53.10;;;;;;5081900;28;19925;-66
2023/05/23 12:43:51;;;;;;;;;;;21.50;53.10;;;;;;5054483;28;19921;-65
2023/05/23 12:46:17;;;;;;;;;;;21.50;53.10;;;;;;5081509;28;19925;-67
2023/05/23 12:48:43;;;;;;;;;;;21.50;53.10;;;;;;5048027;28;19947;-68
2023/05/23 12:51:08;;;;;;;;;;;21.50;53.20;;;;;;5053130;28;19925;-67
2023/05/23 12:53:34;;;;;;;;;;;21.50;53.20;;;;;;5052767;28;19935;-71
2023/05/23 12:55:59;;;;;;;;;;;21.50;53.30;;;;;;5047634;28;20043;-67
2023/05/23 12:58:25;;;;;;;;;;;21.50;53.30;;;;;;5045926;28;19939;-69
2023/05/23 13:00:50;;;;;;;;;;;21.40;53.40;;;;;;5047185;28;19960;-70
2023/05/23 13:03:16;;;;;;;;;;;21.40;53.40;;;;;;5048071;28;20510;-75
2023/05/23 13:05:42;;;;;;;;;;;21.40;53.10;;;;;;5049391;28;20547;-65
2023/05/23 13:08:07;;;;;;;;;;;21.50;52.70;;;;;;5064469;28;20486;-66
2023/05/23 13:10:33;;;;;;;;;;;21.50;52.30;;;;;;5106077;28;19921;-65
2023/05/23 13:12:59;;;;;;;;;;;21.50;52.00;;;;;;5073856;28;19931;-66
2023/05/23 13:15:24;;;;;;;;;;;21.50;52.00;;;;;;5075584;28;19932;-66
2023/05/23 13:17:50;;;;;;;;;;;21.50;51.90;;;;;;5058772;28;19921;-66
2023/05/23 13:20:15;;;;;;;;;;;21.40;51.60;;;;;;5067707;28;19933;-68
2023/05/23 13:22:41;;;;;;;;;;;21.40;51.60;;;;;;5109147;28;19943;-64
2023/05/23 13:25:07;;;;;;;;;;;21.40;51.40;;;;;;5073263;28;19926;-67
2023/05/23 13:27:33;;;;;;;;;;;21.40;51.50;;;;;;5069031;28;19924;-67
2023/05/23 13:29:58;;;;;;;;;;;21.40;51.20;;;;;;5077699;28;20593;-68
2023/05/23 13:32:24;;;;;;;;;;;21.30;50.90;;;;;;5071258;28;19932;-67
2023/05/23 13:34:49;;;;;;;;;;;21.40;51.00;;;;;;5064715;28;19920;-66
2023/05/23 13:37:15;;;;;;;;;;;21.30;50.90;;;;;;5064398;28;19928;-72
2023/05/23 13:39:40;;;;;;;;;;;21.40;50.80;;;;;;5080217;28;20372;-66
2023/05/23 13:42:06;;;;;;;;;;;21.30;50.40;;;;;;5080583;28;19920;-67
2023/05/23 13:44:32;;;;;;;;;;;21.30;50.30;;;;;;5066545;28;19924;-67
2023/05/23 13:47:08;;;;;;;;;;;21.30;50.30;;;;;;5070544;28;20220;-66
2023/05/23 13:49:33;;;;;;;;;;;21.40;50.40;;;;;;5060660;28;19921;-74
2023/05/23 13:51:59;;;;;;;;;;;21.40;50.30;;;;;;5057371;28;19924;-74
2023/05/23 13:54:24;;;;;;;;;;;21.40;50.30;;;;;;5048187;28;20564;-73
2023/05/23 13:56:50;;;;;;;;;;;21.40;50.20;;;;;;5048309;28;19927;-74
2023/05/23 13:59:19;;;;;;;;;;;21.50;50.10;;;;;;5047858;28;19928;-73
2023/05/23 14:01:46;;;;;;;;;;;21.50;49.90;;;;;;5051174;28;19925;-72
2023/05/23 14:04:12;;;;;;;;;;;21.60;49.70;;;;;;5055672;28;19920;-72
2023/05/23 14:06:37;;;;;;;;;;;21.60;49.50;;;;;;5065782;28;19927;-75
2023/05/23 14:09:04;;;;;;;;;;;21.70;49.20;;;;;;5042362;28;19921;-76
2023/05/23 14:11:29;;;;;;;;;;;21.70;48.90;;;;;;5067631;28;19921;-77
2023/05/23 14:13:55;;;;;;;;;;;21.70;48.70;;;;;;5062953;28;19925;-77
2023/05/23 14:16:20;;;;;;;;;;;21.80;48.70;;;;;;5070857;28;19920;-76
2023/05/23 14:18:46;;;;;;;;;;;21.80;49.30;;;;;;5059951;28;20375;-72
2023/05/23 14:21:11;;;;;;;;;;;21.70;49.20;;;;;;5052583;28;19936;-74
2023/05/23 14:23:37;;;;;;;;;;;21.90;49.20;;;;;;5053607;28;19971;-74
2023/05/23 14:26:03;;;;;;;;;;;21.90;48.80;;;;;;5057098;28;19955;-76
2023/05/23 14:28:28;;;;;;;;;;;21.90;48.60;;;;;;5058333;28;19956;-82
2023/05/23 14:30:54;;;;;;;;;;;21.90;48.80;;;;;;5060215;28;19920;-75
2023/05/23 14:33:20;;;;;;;;;;;22.00;49.00;;;;;;5056790;28;20028;-79